createdAt,value
2023-01-30T00:00:57.435Z,1012.07
2023-01-30T00:01:57.432Z,1011.82
2023-01-30T00:02:57.354Z,1011.85
2023-01-30T00:03:57.318Z,1011.77
2023-01-30T00:04:57.296Z,1011.74
2023-01-30T00:05:57.241Z,1011.77
2023-01-30T00:06:57.196Z,1011.70
2023-01-30T00:07:57.158Z,1011.58
2023-01-30T00:08:57.127Z,1011.52
2023-01-30T00:09:57.094Z,1011.42
2023-01-30T00:10:57.040Z,1011.42
2023-01-30T00:11:57.001Z,1011.40
2023-01-30T00:12:56.958Z,1011.32
2023-01-30T00:13:56.954Z,1011.31
2023-01-30T00:14:56.889Z,1011.26
2023-01-30T00:15:56.914Z,1011.23
2023-01-30T00:16:56.795Z,1011.25
2023-01-30T00:17:56.767Z,1011.21
2023-01-30T00:18:56.718Z,1011.16
2023-01-30T00:19:56.680Z,1011.23
2023-01-30T00:20:56.642Z,1011.24
2023-01-30T00:21:56.605Z,1011.22
2023-01-30T00:23:01.079Z,1011.20
2023-01-30T00:23:56.522Z,1011.16
2023-01-30T00:24:56.622Z,1011.11
2023-01-30T00:25:56.449Z,1011.14
2023-01-30T00:26:56.404Z,1011.07
2023-01-30T00:27:56.363Z,1011.02
2023-01-30T00:28:56.325Z,1011.09
2023-01-30T00:30:02.795Z,1011.13
2023-01-30T00:30:56.284Z,1011.24
2023-01-30T00:31:56.303Z,1011.27
2023-01-30T00:32:56.163Z,1011.25
2023-01-30T00:33:56.143Z,1011.30
2023-01-30T00:34:56.085Z,1011.30
2023-01-30T00:35:56.044Z,1011.26
2023-01-30T00:37:07.441Z,1011.22
2023-01-30T00:37:55.970Z,1011.33
2023-01-30T00:38:55.947Z,1011.29
2023-01-30T00:39:55.883Z,1011.25
2023-01-30T00:40:55.849Z,1011.18
2023-01-30T00:41:55.804Z,1011.12
2023-01-30T00:42:55.765Z,1011.20
2023-01-30T00:43:55.729Z,1011.11
2023-01-30T00:44:55.689Z,1011.23
2023-01-30T00:45:55.669Z,1011.16
2023-01-30T00:46:55.615Z,1011.13
2023-01-30T00:47:55.570Z,1011.13
2023-01-30T00:48:55.533Z,1011.06
2023-01-30T00:49:55.496Z,1011.06
2023-01-30T00:50:55.457Z,1011.10
2023-01-30T00:51:55.413Z,1011.05
2023-01-30T00:52:55.377Z,1011.05
2023-01-30T00:53:55.341Z,1011.06
2023-01-30T00:54:55.299Z,1011.02
2023-01-30T00:55:55.258Z,1010.97
2023-01-30T00:56:55.208Z,1011.02
2023-01-30T00:57:55.197Z,1011.08
2023-01-30T00:58:55.133Z,1011.12
2023-01-30T00:59:55.094Z,1011.16
2023-01-30T01:00:55.057Z,1011.09
2023-01-30T01:01:55.027Z,1011.04
2023-01-30T01:02:55.003Z,1010.95
2023-01-30T01:03:54.941Z,1010.89
2023-01-30T01:04:54.905Z,1010.91
2023-01-30T01:05:54.857Z,1010.84
2023-01-30T01:06:54.820Z,1010.85
2023-01-30T01:07:54.788Z,1010.81
2023-01-30T01:08:54.744Z,1010.78
2023-01-30T01:09:54.701Z,1010.80
2023-01-30T01:10:54.661Z,1010.87
2023-01-30T01:11:54.629Z,1010.81
2023-01-30T01:12:54.604Z,1010.80
2023-01-30T01:13:54.536Z,1010.79
2023-01-30T01:14:54.510Z,1010.82
2023-01-30T01:15:54.471Z,1010.78
2023-01-30T01:16:54.422Z,1010.77
2023-01-30T01:17:54.385Z,1010.79
2023-01-30T01:18:54.350Z,1010.91
2023-01-30T01:19:54.330Z,1010.92
2023-01-30T01:20:54.276Z,1010.98
2023-01-30T01:21:54.230Z,1010.93
2023-01-30T01:22:54.200Z,1010.90
2023-01-30T01:23:54.146Z,1010.91
2023-01-30T01:24:54.109Z,1010.95
2023-01-30T01:25:54.093Z,1010.96
2023-01-30T01:26:54.028Z,1010.88
2023-01-30T01:27:53.994Z,1010.81
2023-01-30T01:28:53.956Z,1010.84
2023-01-30T01:29:53.908Z,1010.87
2023-01-30T01:30:53.890Z,1010.86
2023-01-30T01:31:53.851Z,1010.93
2023-01-30T01:32:53.793Z,1010.89
2023-01-30T01:33:53.754Z,1010.85
2023-01-30T01:34:53.716Z,1010.91
2023-01-30T01:35:53.671Z,1010.90
2023-01-30T01:36:53.849Z,1010.97
2023-01-30T01:37:53.593Z,1010.89
2023-01-30T01:38:53.562Z,1010.91
2023-01-30T01:39:53.512Z,1010.90
2023-01-30T01:40:53.505Z,1010.86
2023-01-30T01:41:53.433Z,1010.81
2023-01-30T01:42:53.397Z,1010.88
2023-01-30T01:43:53.356Z,1010.89
2023-01-30T01:44:53.324Z,1010.86
2023-01-30T01:45:53.413Z,1010.87
2023-01-30T01:46:53.247Z,1010.79
2023-01-30T01:47:53.199Z,1010.86
2023-01-30T01:48:53.164Z,1010.83
2023-01-30T01:49:53.119Z,1010.81
2023-01-30T01:50:53.080Z,1010.80
2023-01-30T01:51:53.044Z,1010.80
2023-01-30T01:52:53.009Z,1010.75
2023-01-30T01:53:52.963Z,1010.73
2023-01-30T01:54:52.919Z,1010.77
2023-01-30T01:55:52.889Z,1010.70
2023-01-30T01:56:52.844Z,1010.68
2023-01-30T01:57:52.812Z,1010.59
2023-01-30T01:58:52.780Z,1010.65
2023-01-30T01:59:52.772Z,1010.54
2023-01-30T02:00:52.721Z,1010.53
2023-01-30T02:01:52.644Z,1010.51
2023-01-30T02:02:52.618Z,1010.45
2023-01-30T02:03:52.567Z,1010.43
2023-01-30T02:04:52.530Z,1010.47
2023-01-30T02:05:52.500Z,1010.52
2023-01-30T02:06:52.449Z,1010.44
2023-01-30T02:07:52.440Z,1010.42
2023-01-30T02:08:52.379Z,1010.42
2023-01-30T02:09:52.374Z,1010.43
2023-01-30T02:10:52.291Z,1010.47
2023-01-30T02:11:52.247Z,1010.48
2023-01-30T02:12:52.211Z,1010.40
2023-01-30T02:13:52.173Z,1010.36
2023-01-30T02:14:52.134Z,1010.38
2023-01-30T02:15:52.094Z,1010.42
2023-01-30T02:16:52.067Z,1010.37
2023-01-30T02:17:52.043Z,1010.30
2023-01-30T02:18:51.978Z,1010.23
2023-01-30T02:19:51.945Z,1010.20
2023-01-30T02:20:51.899Z,1010.18
2023-01-30T02:21:51.856Z,1010.09
2023-01-30T02:22:51.813Z,1010.05
2023-01-30T02:23:51.783Z,1010.07
2023-01-30T02:24:51.737Z,1009.96
2023-01-30T02:25:51.694Z,1010.00
2023-01-30T02:26:51.667Z,1010.02
2023-01-30T02:27:51.630Z,1010.04
2023-01-30T02:28:51.614Z,1009.98
2023-01-30T02:29:51.538Z,1010.05
2023-01-30T02:30:51.584Z,1010.18
2023-01-30T02:31:51.457Z,1010.06
2023-01-30T02:32:51.419Z,1010.01
2023-01-30T02:33:51.381Z,1009.94
2023-01-30T02:34:51.344Z,1010.00
2023-01-30T02:35:51.306Z,1009.99
2023-01-30T02:36:51.261Z,1009.93
2023-01-30T02:37:51.231Z,1009.86
2023-01-30T02:38:51.187Z,1009.93
2023-01-30T02:39:51.141Z,1009.90
2023-01-30T02:40:51.108Z,1009.85
2023-01-30T02:41:51.091Z,1009.84
2023-01-30T02:42:51.025Z,1009.78
2023-01-30T02:43:50.985Z,1009.75
2023-01-30T02:44:50.945Z,1009.69
2023-01-30T02:45:50.978Z,1009.79
2023-01-30T02:46:50.880Z,1009.60
2023-01-30T02:47:50.835Z,1009.73
2023-01-30T02:48:50.788Z,1009.75
2023-01-30T02:49:50.759Z,1009.70
2023-01-30T02:50:50.709Z,1009.71
2023-01-30T02:51:50.672Z,1009.62
2023-01-30T02:52:50.671Z,1009.64
2023-01-30T02:53:50.590Z,1009.62
2023-01-30T02:54:50.548Z,1009.55
2023-01-30T02:55:50.513Z,1009.62
2023-01-30T02:56:50.469Z,1009.45
2023-01-30T02:57:50.430Z,1009.45
2023-01-30T02:58:50.395Z,1009.44
2023-01-30T02:59:50.353Z,1009.50
2023-01-30T03:00:50.310Z,1009.35
2023-01-30T03:01:50.267Z,1009.41
2023-01-30T03:02:50.276Z,1009.35
2023-01-30T03:03:50.210Z,1009.27
2023-01-30T03:04:50.179Z,1009.24
2023-01-30T03:05:50.109Z,1009.19
2023-01-30T03:06:50.072Z,1009.18
2023-01-30T03:07:50.040Z,1009.22
2023-01-30T03:08:49.999Z,1009.14
2023-01-30T03:09:49.955Z,1009.13
2023-01-30T03:10:49.913Z,1009.11
2023-01-30T03:11:49.872Z,1009.03
2023-01-30T03:12:49.831Z,1009.07
2023-01-30T03:13:49.799Z,1009.04
2023-01-30T03:14:49.783Z,1008.99
2023-01-30T03:15:49.773Z,1008.99
2023-01-30T03:16:49.677Z,1009.02
2023-01-30T03:17:49.658Z,1009.02
2023-01-30T03:18:49.601Z,1009.03
2023-01-30T03:19:49.553Z,1008.94
2023-01-30T03:20:49.516Z,1008.94
2023-01-30T03:21:49.477Z,1008.88
2023-01-30T03:22:49.477Z,1008.84
2023-01-30T03:23:49.393Z,1008.90
2023-01-30T03:24:49.358Z,1008.91
2023-01-30T03:25:49.329Z,1009.02
2023-01-30T03:26:49.280Z,1009.10
2023-01-30T03:27:49.236Z,1009.02
2023-01-30T03:28:49.199Z,1009.00
2023-01-30T03:29:49.164Z,1009.04
2023-01-30T03:30:49.275Z,1009.11
2023-01-30T03:31:49.117Z,1009.00
2023-01-30T03:32:49.051Z,1008.99
2023-01-30T03:33:49.010Z,1008.88
2023-01-30T03:34:48.974Z,1008.93
2023-01-30T03:35:48.922Z,1008.91
2023-01-30T03:36:48.886Z,1009.03
2023-01-30T03:37:48.839Z,1008.96
2023-01-30T03:38:48.809Z,1008.88
2023-01-30T03:39:48.763Z,1008.88
2023-01-30T03:40:48.724Z,1008.87
2023-01-30T03:41:48.681Z,1008.81
2023-01-30T03:42:48.641Z,1008.80
2023-01-30T03:43:48.617Z,1008.79
2023-01-30T03:44:48.575Z,1008.81
2023-01-30T03:45:48.586Z,1008.75
2023-01-30T03:46:48.494Z,1008.67
2023-01-30T03:47:48.472Z,1008.73
2023-01-30T03:48:48.408Z,1008.75
2023-01-30T03:49:48.364Z,1008.70
2023-01-30T03:50:48.329Z,1008.74
2023-01-30T03:51:48.294Z,1008.68
2023-01-30T03:52:48.250Z,1008.65
2023-01-30T03:53:48.212Z,1008.65
2023-01-30T03:54:48.167Z,1008.67
2023-01-30T03:55:48.123Z,1008.64
2023-01-30T03:56:48.105Z,1008.70
2023-01-30T03:57:48.069Z,1008.64
2023-01-30T03:58:48.015Z,1008.66
2023-01-30T03:59:47.995Z,1008.59
2023-01-30T04:00:47.937Z,1008.57
2023-01-30T04:01:47.939Z,1008.56
2023-01-30T04:02:47.902Z,1008.51
2023-01-30T04:03:47.811Z,1008.60
2023-01-30T04:04:47.775Z,1008.57
2023-01-30T04:05:47.734Z,1008.60
2023-01-30T04:06:47.691Z,1008.57
2023-01-30T04:07:47.655Z,1008.56
2023-01-30T04:08:47.617Z,1008.56
2023-01-30T04:09:47.575Z,1008.62
2023-01-30T04:10:47.541Z,1008.63
2023-01-30T04:11:47.492Z,1008.74
2023-01-30T04:12:47.461Z,1008.77
2023-01-30T04:13:47.418Z,1008.73
2023-01-30T04:14:47.382Z,1008.68
2023-01-30T04:15:47.341Z,1008.71
2023-01-30T04:16:47.360Z,1008.65
2023-01-30T04:17:47.258Z,1008.42
2023-01-30T04:18:47.222Z,1008.60
2023-01-30T04:19:47.181Z,1008.45
2023-01-30T04:20:47.143Z,1008.57
2023-01-30T04:21:47.107Z,1008.54
2023-01-30T04:22:47.062Z,1008.55
2023-01-30T04:23:47.028Z,1008.52
2023-01-30T04:24:46.989Z,1008.43
2023-01-30T04:25:46.944Z,1008.43
2023-01-30T04:26:46.949Z,1008.48
2023-01-30T04:27:46.872Z,1008.58
2023-01-30T04:28:46.831Z,1008.52
2023-01-30T04:29:46.797Z,1008.52
2023-01-30T04:30:46.763Z,1008.44
2023-01-30T04:31:46.707Z,1008.45
2023-01-30T04:32:46.714Z,1008.50
2023-01-30T04:33:46.639Z,1008.35
2023-01-30T04:34:46.595Z,1008.50
2023-01-30T04:35:46.554Z,1008.54
2023-01-30T04:36:46.518Z,1008.56
2023-01-30T04:37:46.491Z,1008.55
2023-01-30T04:38:46.464Z,1008.57
2023-01-30T04:39:46.396Z,1008.59
2023-01-30T04:40:46.362Z,1008.73
2023-01-30T04:41:46.320Z,1008.58
2023-01-30T04:42:46.280Z,1008.57
2023-01-30T04:43:46.247Z,1008.57
2023-01-30T04:44:46.209Z,1008.63
2023-01-30T04:45:46.202Z,1008.61
2023-01-30T04:46:46.157Z,1008.60
2023-01-30T04:47:46.159Z,1008.62
2023-01-30T04:48:46.054Z,1008.66
2023-01-30T04:49:46.007Z,1008.52
2023-01-30T04:50:45.963Z,1008.60
2023-01-30T04:51:45.927Z,1008.59
2023-01-30T04:52:45.903Z,1008.54
2023-01-30T04:53:45.851Z,1008.55
2023-01-30T04:54:45.809Z,1008.59
2023-01-30T04:55:45.795Z,1008.53
2023-01-30T04:56:45.735Z,1008.60
2023-01-30T04:57:45.694Z,1008.48
2023-01-30T04:58:45.648Z,1008.54
2023-01-30T04:59:45.618Z,1008.50
2023-01-30T05:00:45.609Z,1008.50
2023-01-30T05:01:45.552Z,1008.65
2023-01-30T05:02:45.497Z,1008.37
2023-01-30T05:03:45.462Z,1008.43
2023-01-30T05:04:45.506Z,1008.48
2023-01-30T05:05:45.380Z,1008.37
2023-01-30T05:06:45.359Z,1008.49
2023-01-30T05:07:45.312Z,1008.56
2023-01-30T05:08:46.872Z,1008.41
2023-01-30T05:09:45.254Z,1008.37
2023-01-30T05:10:45.185Z,1008.40
2023-01-30T05:11:45.144Z,1008.28
2023-01-30T05:12:45.101Z,1008.31
2023-01-30T05:13:45.066Z,1008.24
2023-01-30T05:14:45.025Z,1008.15
2023-01-30T05:15:44.995Z,1008.10
2023-01-30T05:16:44.949Z,1008.20
2023-01-30T05:17:44.911Z,1008.12
2023-01-30T05:18:44.893Z,1008.25
2023-01-30T05:19:44.831Z,1008.21
2023-01-30T05:20:44.801Z,1008.27
2023-01-30T05:21:44.761Z,1008.29
2023-01-30T05:22:44.709Z,1008.33
2023-01-30T05:23:44.678Z,1008.26
2023-01-30T05:24:44.632Z,1008.24
2023-01-30T05:25:44.606Z,1008.21
2023-01-30T05:26:44.600Z,1008.35
2023-01-30T05:27:44.519Z,1008.24
2023-01-30T05:28:44.490Z,1008.23
2023-01-30T05:29:44.435Z,1008.32
2023-01-30T05:30:46.348Z,1008.23
2023-01-30T05:31:44.395Z,1008.31
2023-01-30T05:32:44.315Z,1008.35
2023-01-30T05:33:44.274Z,1008.29
2023-01-30T05:34:44.235Z,1008.23
2023-01-30T05:35:44.202Z,1008.24
2023-01-30T05:36:44.156Z,1008.24
2023-01-30T05:37:44.120Z,1008.14
2023-01-30T05:38:44.079Z,1008.13
2023-01-30T05:39:44.040Z,1008.18
2023-01-30T05:40:43.996Z,1008.15
2023-01-30T05:41:44.029Z,1008.21
2023-01-30T05:42:43.919Z,1008.15
2023-01-30T05:43:43.916Z,1008.16
2023-01-30T05:44:43.846Z,1008.25
2023-01-30T05:45:43.807Z,1008.22
2023-01-30T05:46:43.838Z,1008.21
2023-01-30T05:47:43.732Z,1008.26
2023-01-30T05:48:43.683Z,1008.10
2023-01-30T05:49:43.667Z,1008.09
2023-01-30T05:50:43.603Z,1008.15
2023-01-30T05:51:43.563Z,1008.20
2023-01-30T05:52:43.527Z,1008.16
2023-01-30T05:53:43.487Z,1008.10
2023-01-30T05:54:43.456Z,1008.15
2023-01-30T05:55:43.406Z,1008.17
2023-01-30T05:56:43.364Z,1008.08
2023-01-30T05:57:43.377Z,1008.11
2023-01-30T05:58:43.312Z,1008.16
2023-01-30T05:59:43.248Z,1008.13
2023-01-30T06:00:43.208Z,1008.16
2023-01-30T06:01:43.167Z,1008.13
2023-01-30T06:02:43.175Z,1008.10
2023-01-30T06:03:43.118Z,1008.09
2023-01-30T06:04:43.049Z,1008.13
2023-01-30T06:05:43.016Z,1008.08
2023-01-30T06:06:42.980Z,1008.11
2023-01-30T06:07:42.935Z,1008.14
2023-01-30T06:08:42.910Z,1008.15
2023-01-30T06:09:42.855Z,1008.21
2023-01-30T06:10:42.812Z,1008.26
2023-01-30T06:11:42.771Z,1008.23
2023-01-30T06:12:42.732Z,1008.16
2023-01-30T06:13:42.709Z,1008.23
2023-01-30T06:14:42.699Z,1008.25
2023-01-30T06:15:42.665Z,1008.16
2023-01-30T06:16:42.616Z,1008.27
2023-01-30T06:17:42.531Z,1008.24
2023-01-30T06:18:42.508Z,1008.15
2023-01-30T06:19:42.454Z,1008.13
2023-01-30T06:20:42.418Z,1008.23
2023-01-30T06:21:42.376Z,1008.22
2023-01-30T06:22:42.340Z,1008.19
2023-01-30T06:23:42.301Z,1008.24
2023-01-30T06:24:42.262Z,1008.16
2023-01-30T06:25:42.217Z,1008.27
2023-01-30T06:26:42.252Z,1008.23
2023-01-30T06:27:42.144Z,1008.20
2023-01-30T06:28:42.108Z,1008.23
2023-01-30T06:29:42.063Z,1008.18
2023-01-30T06:30:42.060Z,1008.32
2023-01-30T06:31:42.137Z,1008.25
2023-01-30T06:32:42.017Z,1008.31
2023-01-30T06:33:41.928Z,1008.37
2023-01-30T06:34:41.861Z,1008.44
2023-01-30T06:35:41.844Z,1008.50
2023-01-30T06:36:41.779Z,1008.53
2023-01-30T06:37:41.739Z,1008.55
2023-01-30T06:38:41.705Z,1008.59
2023-01-30T06:39:41.675Z,1008.43
2023-01-30T06:40:41.627Z,1008.44
2023-01-30T06:41:41.591Z,1008.42
2023-01-30T06:42:41.540Z,1008.43
2023-01-30T06:43:41.556Z,1008.50
2023-01-30T06:44:41.459Z,1008.42
2023-01-30T06:45:41.431Z,1008.38
2023-01-30T06:46:41.428Z,1008.35
2023-01-30T06:47:41.351Z,1008.33
2023-01-30T06:48:41.306Z,1008.36
2023-01-30T06:49:41.276Z,1008.37
2023-01-30T06:50:41.232Z,1008.43
2023-01-30T06:51:41.194Z,1008.41
2023-01-30T06:52:41.153Z,1008.42
2023-01-30T06:53:41.115Z,1008.48
2023-01-30T06:54:41.074Z,1008.49
2023-01-30T06:55:41.111Z,1008.52
2023-01-30T06:56:40.998Z,1008.49
2023-01-30T06:57:40.976Z,1008.46
2023-01-30T06:58:40.911Z,1008.48
2023-01-30T06:59:40.880Z,1008.51
2023-01-30T07:00:40.844Z,1008.56
2023-01-30T07:01:40.863Z,1008.59
2023-01-30T07:02:40.755Z,1008.60
2023-01-30T07:03:40.719Z,1008.60
2023-01-30T07:04:40.679Z,1008.63
2023-01-30T07:05:40.671Z,1008.59
2023-01-30T07:06:40.597Z,1008.54
2023-01-30T07:07:40.566Z,1008.53
2023-01-30T07:08:40.515Z,1008.52
2023-01-30T07:09:40.483Z,1008.63
2023-01-30T07:10:40.442Z,1008.61
2023-01-30T07:11:40.449Z,1008.69
2023-01-30T07:12:40.364Z,1008.65
2023-01-30T07:13:40.323Z,1008.59
2023-01-30T07:14:40.285Z,1008.55
2023-01-30T07:15:40.246Z,1008.47
2023-01-30T07:16:40.221Z,1008.52
2023-01-30T07:17:40.166Z,1008.58
2023-01-30T07:18:40.134Z,1008.60
2023-01-30T07:19:40.088Z,1008.64
2023-01-30T07:20:40.052Z,1008.70
2023-01-30T07:21:40.013Z,1008.66
2023-01-30T07:22:39.985Z,1008.63
2023-01-30T07:23:39.931Z,1008.69
2023-01-30T07:24:39.900Z,1008.73
2023-01-30T07:25:39.862Z,1008.66
2023-01-30T07:26:39.841Z,1008.67
2023-01-30T07:27:39.774Z,1008.66
2023-01-30T07:28:39.739Z,1008.65
2023-01-30T07:29:39.714Z,1008.57
2023-01-30T07:30:39.704Z,1008.58
2023-01-30T07:31:39.654Z,1008.57
2023-01-30T07:32:39.616Z,1008.52
2023-01-30T07:33:39.543Z,1008.45
2023-01-30T07:34:39.502Z,1008.44
2023-01-30T07:35:39.470Z,1008.49
2023-01-30T07:36:39.426Z,1008.59
2023-01-30T07:37:39.393Z,1008.53
2023-01-30T07:38:39.350Z,1008.58
2023-01-30T07:39:39.305Z,1008.57
2023-01-30T07:40:39.266Z,1008.63
2023-01-30T07:41:39.236Z,1008.63
2023-01-30T07:42:39.201Z,1008.66
2023-01-30T07:43:39.167Z,1008.66
2023-01-30T07:44:39.129Z,1008.60
2023-01-30T07:45:39.078Z,1008.58
2023-01-30T07:46:39.104Z,1008.73
2023-01-30T07:47:39.002Z,1008.69
2023-01-30T07:48:38.981Z,1008.81
2023-01-30T07:49:38.973Z,1008.71
2023-01-30T07:50:38.881Z,1008.72
2023-01-30T07:51:38.840Z,1008.80
2023-01-30T07:52:38.838Z,1008.68
2023-01-30T07:53:38.766Z,1008.85
2023-01-30T07:54:38.718Z,1008.85
2023-01-30T07:55:38.693Z,1008.80
2023-01-30T07:56:38.657Z,1008.81
2023-01-30T07:57:38.606Z,1008.77
2023-01-30T07:58:38.569Z,1008.76
2023-01-30T07:59:38.545Z,1008.74
2023-01-30T08:00:38.504Z,1008.69
2023-01-30T08:01:38.453Z,1008.81
2023-01-30T08:02:38.405Z,1008.90
2023-01-30T08:03:38.368Z,1008.86
2023-01-30T08:04:38.443Z,1008.92
2023-01-30T08:05:38.295Z,1008.93
2023-01-30T08:06:38.254Z,1008.90
2023-01-30T08:07:38.222Z,1008.90
2023-01-30T08:08:38.192Z,1008.86
2023-01-30T08:09:38.137Z,1008.93
2023-01-30T08:10:38.105Z,1009.02
2023-01-30T08:11:38.066Z,1008.97
2023-01-30T08:12:38.035Z,1008.98
2023-01-30T08:13:37.988Z,1008.98
2023-01-30T08:14:37.975Z,1008.96
2023-01-30T08:15:37.916Z,1008.95
2023-01-30T08:16:37.905Z,1008.93
2023-01-30T08:17:37.836Z,1009.01
2023-01-30T08:18:37.797Z,1009.02
2023-01-30T08:19:37.749Z,1009.01
2023-01-30T08:20:37.702Z,1008.95
2023-01-30T08:21:37.674Z,1009.03
2023-01-30T08:22:37.635Z,1008.90
2023-01-30T08:23:37.604Z,1008.94
2023-01-30T08:24:37.550Z,1008.84
2023-01-30T08:25:37.519Z,1008.83
2023-01-30T08:26:37.511Z,1008.88
2023-01-30T08:27:37.441Z,1008.90
2023-01-30T08:28:37.402Z,1008.90
2023-01-30T08:29:37.373Z,1009.00
2023-01-30T08:30:37.352Z,1009.00
2023-01-30T08:31:37.318Z,1009.00
2023-01-30T08:32:37.251Z,1008.98
2023-01-30T08:33:37.214Z,1009.00
2023-01-30T08:34:37.170Z,1009.10
2023-01-30T08:35:37.134Z,1008.97
2023-01-30T08:36:37.117Z,1008.99
2023-01-30T08:37:37.055Z,1008.99
2023-01-30T08:38:37.019Z,1009.04
2023-01-30T08:39:37.357Z,1009.00
2023-01-30T08:40:36.938Z,1009.00
2023-01-30T08:41:36.917Z,1009.13
2023-01-30T08:42:36.864Z,1009.26
2023-01-30T08:43:36.821Z,1009.15
2023-01-30T08:44:36.783Z,1009.09
2023-01-30T08:45:36.752Z,1009.10
2023-01-30T08:46:36.811Z,1009.34
2023-01-30T08:47:36.665Z,1009.17
2023-01-30T08:48:48.630Z,1009.21
2023-01-30T08:49:36.596Z,1009.21
2023-01-30T08:50:36.580Z,1009.31
2023-01-30T08:51:36.523Z,1009.29
2023-01-30T08:52:36.483Z,1009.32
2023-01-30T08:53:36.456Z,1009.33
2023-01-30T08:54:36.411Z,1009.42
2023-01-30T08:55:36.361Z,1009.38
2023-01-30T08:56:36.323Z,1009.42
2023-01-30T08:57:36.291Z,1009.46
2023-01-30T08:58:36.246Z,1009.46
2023-01-30T08:59:36.211Z,1009.43
2023-01-30T09:00:36.185Z,1009.40
2023-01-30T09:01:36.182Z,1009.40
2023-01-30T09:02:36.153Z,1009.40
2023-01-30T09:03:36.059Z,1009.42
2023-01-30T09:04:36.034Z,1009.42
2023-01-30T09:05:35.980Z,1009.55
2023-01-30T09:06:35.939Z,1009.34
2023-01-30T09:07:35.900Z,1009.37
2023-01-30T09:08:35.865Z,1009.41
2023-01-30T09:09:35.825Z,1009.37
2023-01-30T09:10:35.787Z,1009.44
2023-01-30T09:11:35.794Z,1009.34
2023-01-30T09:12:35.720Z,1009.37
2023-01-30T09:13:35.669Z,1009.40
2023-01-30T09:14:35.627Z,1009.35
2023-01-30T09:15:35.619Z,1009.37
2023-01-30T09:16:35.584Z,1009.29
2023-01-30T09:17:35.522Z,1009.31
2023-01-30T09:18:35.478Z,1009.37
2023-01-30T09:19:35.437Z,1009.41
2023-01-30T09:20:35.403Z,1009.28
2023-01-30T09:21:35.376Z,1009.35
2023-01-30T09:22:35.319Z,1009.32
2023-01-30T09:23:35.288Z,1009.37
2023-01-30T09:24:35.244Z,1009.40
2023-01-30T09:25:35.210Z,1009.45
2023-01-30T09:26:35.235Z,1009.35
2023-01-30T09:27:35.132Z,1009.53
2023-01-30T09:28:35.123Z,1009.45
2023-01-30T09:29:35.055Z,1009.49
2023-01-30T09:30:35.119Z,1009.60
2023-01-30T09:31:35.106Z,1009.52
2023-01-30T09:32:34.940Z,1009.52
2023-01-30T09:33:34.911Z,1009.43
2023-01-30T09:34:34.925Z,1009.47
2023-01-30T09:35:34.840Z,1009.44
2023-01-30T09:36:34.800Z,1009.43
2023-01-30T09:37:34.820Z,1009.51
2023-01-30T09:38:34.714Z,1009.55
2023-01-30T09:39:34.682Z,1009.58
2023-01-30T09:40:34.637Z,1009.61
2023-01-30T09:41:34.600Z,1009.62
2023-01-30T09:42:37.117Z,1009.56
2023-01-30T09:43:34.527Z,1009.68
2023-01-30T09:44:34.483Z,1009.61
2023-01-30T09:45:34.451Z,1009.59
2023-01-30T09:46:34.476Z,1009.63
2023-01-30T09:47:34.369Z,1009.72
2023-01-30T09:48:34.412Z,1009.65
2023-01-30T09:49:34.296Z,1009.74
2023-01-30T09:50:34.260Z,1009.69
2023-01-30T09:51:34.214Z,1009.56
2023-01-30T09:52:34.208Z,1009.65
2023-01-30T09:53:34.141Z,1009.63
2023-01-30T09:54:34.113Z,1009.57
2023-01-30T09:55:34.067Z,1009.56
2023-01-30T09:56:34.026Z,1009.60
2023-01-30T09:57:33.990Z,1009.72
2023-01-30T09:58:33.961Z,1009.74
2023-01-30T09:59:33.913Z,1009.68
2023-01-30T10:00:33.885Z,1009.68
2023-01-30T10:01:33.834Z,1009.67
2023-01-30T10:02:33.813Z,1009.58
2023-01-30T10:03:33.855Z,1009.55
2023-01-30T10:04:33.746Z,1009.60
2023-01-30T10:05:33.690Z,1009.68
2023-01-30T10:06:33.648Z,1009.65
2023-01-30T10:07:33.641Z,1009.62
2023-01-30T10:08:33.643Z,1009.65
2023-01-30T10:09:33.538Z,1009.53
2023-01-30T10:10:33.496Z,1009.60
2023-01-30T10:11:33.461Z,1009.56
2023-01-30T10:12:33.424Z,1009.58
2023-01-30T10:13:33.391Z,1009.48
2023-01-30T10:14:33.369Z,1009.63
2023-01-30T10:15:33.324Z,1009.52
2023-01-30T10:16:33.271Z,1009.72
2023-01-30T10:17:33.244Z,1009.57
2023-01-30T10:18:33.206Z,1009.66
2023-01-30T10:19:35.990Z,1009.84
2023-01-30T10:20:33.122Z,1009.65
2023-01-30T10:21:33.086Z,1009.81
2023-01-30T10:22:33.067Z,1009.88
2023-01-30T10:23:33.028Z,1009.76
2023-01-30T10:24:33.001Z,1009.67
2023-01-30T10:25:32.947Z,1009.77
2023-01-30T10:26:34.108Z,1009.76
2023-01-30T10:27:32.887Z,1009.80
2023-01-30T10:28:32.870Z,1009.79
2023-01-30T10:29:32.804Z,1009.77
2023-01-30T10:30:32.786Z,1009.77
2023-01-30T10:31:32.742Z,1009.78
2023-01-30T10:32:32.700Z,1009.75
2023-01-30T10:33:32.649Z,1009.67
2023-01-30T10:34:32.614Z,1009.91
2023-01-30T10:35:32.572Z,1009.90
2023-01-30T10:36:32.539Z,1009.92
2023-01-30T10:37:32.510Z,1009.94
2023-01-30T10:38:32.456Z,1009.97
2023-01-30T10:39:32.427Z,1009.84
2023-01-30T10:40:32.394Z,1010.13
2023-01-30T10:41:32.363Z,1009.87
2023-01-30T10:42:32.313Z,1009.89
2023-01-30T10:43:32.278Z,1009.87
2023-01-30T10:44:32.236Z,1009.88
2023-01-30T10:45:32.225Z,1009.80
2023-01-30T10:46:32.219Z,1009.89
2023-01-30T10:47:41.671Z,1009.89
2023-01-30T10:48:47.199Z,1009.81
2023-01-30T10:49:32.044Z,1009.82
2023-01-30T10:50:32.011Z,1009.82
2023-01-30T10:51:31.979Z,1009.82
2023-01-30T10:52:31.943Z,1009.78
2023-01-30T10:53:31.907Z,1009.80
2023-01-30T10:54:31.868Z,1009.66
2023-01-30T10:55:37.763Z,1009.79
2023-01-30T10:56:31.808Z,1009.85
2023-01-30T10:57:31.773Z,1009.82
2023-01-30T10:58:31.722Z,1009.83
2023-01-30T10:59:31.674Z,1009.77
2023-01-30T11:00:31.636Z,1009.80
2023-01-30T11:01:31.614Z,1009.78
2023-01-30T11:02:31.651Z,1009.82
2023-01-30T11:03:31.548Z,1009.95
2023-01-30T11:04:31.487Z,1009.87
2023-01-30T11:05:31.456Z,1009.90
2023-01-30T11:06:31.437Z,1009.90
2023-01-30T11:07:31.379Z,1009.99
2023-01-30T11:08:31.339Z,1009.92
2023-01-30T11:09:31.302Z,1009.98
2023-01-30T11:10:31.261Z,1010.03
2023-01-30T11:11:31.239Z,1009.88
2023-01-30T11:12:31.210Z,1010.06
2023-01-30T11:13:31.146Z,1009.92
2023-01-30T11:14:31.107Z,1009.96
2023-01-30T11:15:31.076Z,1009.85
2023-01-30T11:16:31.035Z,1010.06
2023-01-30T11:17:31.002Z,1009.88
2023-01-30T11:19:17.629Z,1009.96
2023-01-30T11:19:30.926Z,1009.90
2023-01-30T11:20:30.882Z,1009.96
2023-01-30T11:21:43.212Z,1009.86
2023-01-30T11:22:30.830Z,1009.97
2023-01-30T11:23:30.772Z,1009.97
2023-01-30T11:24:30.739Z,1009.91
2023-01-30T11:25:30.701Z,1009.82
2023-01-30T11:26:45.082Z,1009.86
2023-01-30T11:27:30.619Z,1009.91
2023-01-30T11:28:30.600Z,1010.07
2023-01-30T11:29:30.558Z,1009.93
2023-01-30T11:30:30.531Z,1009.91
2023-01-30T11:31:41.001Z,1009.98
2023-01-30T11:32:30.472Z,1009.96
2023-01-30T11:33:30.455Z,1009.98
2023-01-30T11:34:30.367Z,1010.08
2023-01-30T11:35:30.320Z,1009.96
2023-01-30T11:36:30.287Z,1009.93
2023-01-30T11:37:30.238Z,1010.08
2023-01-30T11:38:30.210Z,1010.16
2023-01-30T11:39:30.179Z,1010.13
2023-01-30T11:40:30.144Z,1009.96
2023-01-30T11:41:30.098Z,1009.95
2023-01-30T11:42:30.067Z,1010.01
2023-01-30T11:43:30.030Z,1009.97
2023-01-30T11:44:29.995Z,1010.13
2023-01-30T11:45:29.986Z,1009.92
2023-01-30T11:46:29.924Z,1010.01
2023-01-30T11:47:29.874Z,1010.09
2023-01-30T11:48:33.959Z,1010.03
2023-01-30T11:49:47.240Z,1010.03
2023-01-30T11:50:32.084Z,1009.99
2023-01-30T11:51:29.718Z,1010.02
2023-01-30T11:52:29.689Z,1010.05
2023-01-30T11:53:29.662Z,1010.03
2023-01-30T11:54:29.607Z,1010.07
2023-01-30T11:55:29.570Z,1010.13
2023-01-30T11:56:29.533Z,1010.00
2023-01-30T11:57:29.503Z,1009.99
2023-01-30T11:58:29.457Z,1010.01
2023-01-30T11:59:29.426Z,1009.94
2023-01-30T12:00:29.426Z,1009.97
2023-01-30T12:01:29.344Z,1010.03
2023-01-30T12:02:29.315Z,1010.10
2023-01-30T12:03:29.420Z,1009.99
2023-01-30T12:04:29.235Z,1009.97
2023-01-30T12:05:29.197Z,1010.03